sensor_id;sensor_type;location;lat;lon;timestamp;P1;durP1;ratioP1;P2;durP2;ratioP2
59468;SDS011;45277;52.768;18.262;2024-03-29T00:00:51;3.80;;;1.55;;
59468;SDS011;45277;52.768;18.262;2024-03-29T00:02:42;1.50;;;1.40;;
59468;SDS011;45277;52.768;18.262;2024-03-29T00:04:14;1.15;;;1.15;;
59468;SDS011;45277;52.768;18.262;2024-03-29T00:05:45;1.65;;;1.55;;
59468;SDS011;45277;52.768;18.262;2024-03-29T00:07:17;1.55;;;1.45;;
59468;SDS011;45277;52.768;18.262;2024-03-29T00:08:48;1.65;;;1.55;;
59468;SDS011;45277;52.768;18.262;2024-03-29T00:10:20;2.20;;;2.00;;
59468;SDS011;45277;52.768;18.262;2024-03-29T00:11:51;1.80;;;1.70;;
59468;SDS011;45277;52.768;18.262;2024-03-29T00:15:50;2.42;;;1.92;;
59468;SDS011;45277;52.768;18.262;2024-03-29T00:17:21;3.65;;;1.80;;
59468;SDS011;45277;52.768;18.262;2024-03-29T00:18:52;1.98;;;1.83;;
59468;SDS011;45277;52.768;18.262;2024-03-29T00:20:24;2.47;;;1.80;;
59468;SDS011;45277;52.768;18.262;2024-03-29T00:21:56;2.85;;;1.85;;
59468;SDS011;45277;52.768;18.262;2024-03-29T00:23:27;1.90;;;1.70;;
59468;SDS011;45277;52.768;18.262;2024-03-29T00:24:59;1.70;;;1.60;;
59468;SDS011;45277;52.768;18.262;2024-03-29T00:26:30;1.98;;;1.63;;
59468;SDS011;45277;52.768;18.262;2024-03-29T00:28:01;2.05;;;1.67;;
59468;SDS011;45277;52.768;18.262;2024-03-29T00:29:34;2.60;;;1.95;;
59468;SDS011;45277;52.768;18.262;2024-03-29T00:31:07;2.85;;;1.85;;
59468;SDS011;45277;52.768;18.262;2024-03-29T00:32:38;1.77;;;1.67;;
59468;SDS011;45277;52.768;18.262;2024-03-29T00:34:10;2.85;;;1.83;;
59468;SDS011;45277;52.768;18.262;2024-03-29T00:35:41;1.70;;;1.60;;
59468;SDS011;45277;52.768;18.262;2024-03-29T00:37:13;1.50;;;1.38;;
59468;SDS011;45277;52.768;18.262;2024-03-29T00:38:44;2.55;;;1.70;;
59468;SDS011;45277;52.768;18.262;2024-03-29T00:40:16;1.70;;;1.60;;
59468;SDS011;45277;52.768;18.262;2024-03-29T00:41:47;7.30;;;1.70;;
59468;SDS011;45277;52.768;18.262;2024-03-29T00:43:19;2.47;;;1.60;;
59468;SDS011;45277;52.768;18.262;2024-03-29T00:44:50;3.67;;;1.80;;
59468;SDS011;45277;52.768;18.262;2024-03-29T00:46:22;4.32;;;1.70;;
59468;SDS011;45277;52.768;18.262;2024-03-29T00:47:53;2.25;;;1.90;;
59468;SDS011;45277;52.768;18.262;2024-03-29T00:49:24;2.47;;;2.00;;
59468;SDS011;45277;52.768;18.262;2024-03-29T00:50:56;2.88;;;1.98;;
59468;SDS011;45277;52.768;18.262;2024-03-29T00:52:27;1.83;;;1.67;;
59468;SDS011;45277;52.768;18.262;2024-03-29T00:53:59;2.08;;;1.70;;
59468;SDS011;45277;52.768;18.262;2024-03-29T00:55:30;2.38;;;2.13;;
59468;SDS011;45277;52.768;18.262;2024-03-29T00:57:01;2.03;;;1.92;;
59468;SDS011;45277;52.768;18.262;2024-03-29T00:58:33;2.03;;;1.88;;
59468;SDS011;45277;52.768;18.262;2024-03-29T01:00:05;2.72;;;1.75;;
59468;SDS011;45277;52.768;18.262;2024-03-29T01:01:37;5.00;;;2.00;;
59468;SDS011;45277;52.768;18.262;2024-03-29T01:03:09;2.17;;;1.98;;
59468;SDS011;45277;52.768;18.262;2024-03-29T01:04:41;1.92;;;1.60;;
59468;SDS011;45277;52.768;18.262;2024-03-29T01:06:12;1.73;;;1.63;;
59468;SDS011;45277;52.768;18.262;2024-03-29T01:07:44;5.70;;;2.10;;
59468;SDS011;45277;52.768;18.262;2024-03-29T01:09:15;2.63;;;2.00;;
59468;SDS011;45277;52.768;18.262;2024-03-29T01:10:46;3.30;;;1.98;;
59468;SDS011;45277;52.768;18.262;2024-03-29T01:12:18;2.58;;;1.90;;
59468;SDS011;45277;52.768;18.262;2024-03-29T01:13:50;3.60;;;2.05;;
59468;SDS011;45277;52.768;18.262;2024-03-29T01:15:21;3.15;;;2.28;;
59468;SDS011;45277;52.768;18.262;2024-03-29T01:16:53;2.67;;;2.25;;
59468;SDS011;45277;52.768;18.262;2024-03-29T01:18:24;3.55;;;2.10;;
59468;SDS011;45277;52.768;18.262;2024-03-29T01:19:55;2.55;;;1.80;;
59468;SDS011;45277;52.768;18.262;2024-03-29T01:21:27;2.50;;;2.30;;
59468;SDS011;45277;52.768;18.262;2024-03-29T01:22:58;2.85;;;2.08;;
59468;SDS011;45277;52.768;18.262;2024-03-29T01:24:29;2.35;;;2.10;;
59468;SDS011;45277;52.768;18.262;2024-03-29T01:26:01;2.55;;;1.90;;
59468;SDS011;45277;52.768;18.262;2024-03-29T01:27:32;2.72;;;1.90;;
59468;SDS011;45277;52.768;18.262;2024-03-29T01:29:04;3.83;;;2.20;;
59468;SDS011;45277;52.768;18.262;2024-03-29T01:30:37;2.90;;;1.80;;
59468;SDS011;45277;52.768;18.262;2024-03-29T01:32:08;2.30;;;2.10;;
59468;SDS011;45277;52.768;18.262;2024-03-29T01:33:39;2.30;;;1.95;;
59468;SDS011;45277;52.768;18.262;2024-03-29T01:35:12;3.55;;;2.20;;
59468;SDS011;45277;52.768;18.262;2024-03-29T01:36:43;3.38;;;2.25;;
59468;SDS011;45277;52.768;18.262;2024-03-29T01:38:14;3.30;;;2.33;;
59468;SDS011;45277;52.768;18.262;2024-03-29T01:39:46;3.60;;;2.58;;
59468;SDS011;45277;52.768;18.262;2024-03-29T01:41:17;3.38;;;2.08;;
59468;SDS011;45277;52.768;18.262;2024-03-29T01:42:52;2.75;;;2.20;;
59468;SDS011;45277;52.768;18.262;2024-03-29T01:44:24;3.80;;;2.20;;
59468;SDS011;45277;52.768;18.262;2024-03-29T01:45:56;2.75;;;1.95;;
59468;SDS011;45277;52.768;18.262;2024-03-29T01:47:27;5.55;;;2.50;;
59468;SDS011;45277;52.768;18.262;2024-03-29T01:48:59;1.83;;;1.70;;
59468;SDS011;45277;52.768;18.262;2024-03-29T01:50:30;3.75;;;2.45;;
59468;SDS011;45277;52.768;18.262;2024-03-29T01:52:03;3.45;;;2.33;;
59468;SDS011;45277;52.768;18.262;2024-03-29T01:53:35;2.25;;;2.08;;
59468;SDS011;45277;52.768;18.262;2024-03-29T01:55:07;3.25;;;2.38;;
59468;SDS011;45277;52.768;18.262;2024-03-29T01:56:41;3.65;;;2.78;;
59468;SDS011;45277;52.768;18.262;2024-03-29T01:58:13;4.90;;;2.42;;
59468;SDS011;45277;52.768;18.262;2024-03-29T01:59:46;4.78;;;2.75;;
59468;SDS011;45277;52.768;18.262;2024-03-29T02:01:18;3.95;;;2.53;;
59468;SDS011;45277;52.768;18.262;2024-03-29T02:02:51;3.22;;;2.60;;
59468;SDS011;45277;52.768;18.262;2024-03-29T02:04:22;2.90;;;2.28;;
59468;SDS011;45277;52.768;18.262;2024-03-29T02:05:54;2.42;;;2.20;;
59468;SDS011;45277;52.768;18.262;2024-03-29T02:07:28;3.70;;;2.85;;
59468;SDS011;45277;52.768;18.262;2024-03-29T02:09:00;2.83;;;2.40;;
59468;SDS011;45277;52.768;18.262;2024-03-29T02:10:31;3.78;;;2.72;;
59468;SDS011;45277;52.768;18.262;2024-03-29T02:12:03;4.30;;;2.70;;
59468;SDS011;45277;52.768;18.262;2024-03-29T02:13:35;4.03;;;2.53;;
59468;SDS011;45277;52.768;18.262;2024-03-29T02:15:07;3.63;;;2.75;;
59468;SDS011;45277;52.768;18.262;2024-03-29T02:16:39;3.70;;;2.50;;
59468;SDS011;45277;52.768;18.262;2024-03-29T02:18:12;3.55;;;2.20;;
59468;SDS011;45277;52.768;18.262;2024-03-29T02:19:43;5.93;;;3.28;;
59468;SDS011;45277;52.768;18.262;2024-03-29T02:21:15;3.75;;;2.60;;
59468;SDS011;45277;52.768;18.262;2024-03-29T02:22:50;4.47;;;2.88;;
59468;SDS011;45277;52.768;18.262;2024-03-29T02:24:25;3.95;;;2.72;;
59468;SDS011;45277;52.768;18.262;2024-03-29T02:25:58;2.35;;;2.10;;
59468;SDS011;45277;52.768;18.262;2024-03-29T02:27:29;3.17;;;2.75;;
59468;SDS011;45277;52.768;18.262;2024-03-29T02:29:00;3.13;;;2.47;;
59468;SDS011;45277;52.768;18.262;2024-03-29T02:30:33;4.97;;;2.72;;
59468;SDS011;45277;52.768;18.262;2024-03-29T02:32:04;4.07;;;2.45;;
59468;SDS011;45277;52.768;18.262;2024-03-29T02:33:36;4.28;;;2.97;;
59468;SDS011;45277;52.768;18.262;2024-03-29T02:35:08;5.43;;;2.88;;
59468;SDS011;45277;52.768;18.262;2024-03-29T02:36:39;5.07;;;2.88;;
59468;SDS011;45277;52.768;18.262;2024-03-29T02:38:12;3.33;;;2.53;;
59468;SDS011;45277;52.768;18.262;2024-03-29T02:39:43;4.00;;;2.80;;
59468;SDS011;45277;52.768;18.262;2024-03-29T02:41:14;4.18;;;2.63;;
59468;SDS011;45277;52.768;18.262;2024-03-29T02:42:47;3.72;;;2.72;;
59468;SDS011;45277;52.768;18.262;2024-03-29T02:44:19;3.58;;;2.90;;
59468;SDS011;45277;52.768;18.262;2024-03-29T02:45:51;4.07;;;2.80;;
59468;SDS011;45277;52.768;18.262;2024-03-29T02:47:22;3.47;;;3.03;;
59468;SDS011;45277;52.768;18.262;2024-03-29T02:48:54;4.40;;;2.67;;
59468;SDS011;45277;52.768;18.262;2024-03-29T02:50:25;4.22;;;2.47;;
59468;SDS011;45277;52.768;18.262;2024-03-29T02:51:56;3.78;;;2.55;;
59468;SDS011;45277;52.768;18.262;2024-03-29T02:53:28;4.63;;;2.80;;
59468;SDS011;45277;52.768;18.262;2024-03-29T02:54:59;2.85;;;2.35;;
59468;SDS011;45277;52.768;18.262;2024-03-29T02:56:31;2.28;;;2.08;;
59468;SDS011;45277;52.768;18.262;2024-03-29T02:58:03;3.63;;;2.72;;
59468;SDS011;45277;52.768;18.262;2024-03-29T02:59:34;5.15;;;2.67;;
59468;SDS011;45277;52.768;18.262;2024-03-29T03:01:06;6.15;;;3.05;;
59468;SDS011;45277;52.768;18.262;2024-03-29T03:02:39;5.28;;;2.63;;
59468;SDS011;45277;52.768;18.262;2024-03-29T03:04:10;4.05;;;2.38;;
59468;SDS011;45277;52.768;18.262;2024-03-29T03:05:42;6.75;;;2.65;;
59468;SDS011;45277;52.768;18.262;2024-03-29T03:07:13;5.10;;;2.95;;
59468;SDS011;45277;52.768;18.262;2024-03-29T03:09:03;4.28;;;2.92;;
59468;SDS011;45277;52.768;18.262;2024-03-29T03:10:53;3.58;;;2.67;;
59468;SDS011;45277;52.768;18.262;2024-03-29T03:12:30;6.82;;;3.00;;
59468;SDS011;45277;52.768;18.262;2024-03-29T03:14:01;4.45;;;2.40;;
59468;SDS011;45277;52.768;18.262;2024-03-29T03:15:32;3.03;;;2.70;;
59468;SDS011;45277;52.768;18.262;2024-03-29T03:17:04;2.88;;;2.25;;
59468;SDS011;45277;52.768;18.262;2024-03-29T03:18:35;3.67;;;2.20;;
59468;SDS011;45277;52.768;18.262;2024-03-29T03:20:07;2.67;;;1.83;;
59468;SDS011;45277;52.768;18.262;2024-03-29T03:21:40;2.58;;;2.17;;
59468;SDS011;45277;52.768;18.262;2024-03-29T03:23:11;4.13;;;2.35;;
59468;SDS011;45277;52.768;18.262;2024-03-29T03:24:42;4.63;;;2.05;;
59468;SDS011;45277;52.768;18.262;2024-03-29T03:26:14;4.03;;;2.20;;
59468;SDS011;45277;52.768;18.262;2024-03-29T03:27:45;2.75;;;2.25;;
59468;SDS011;45277;52.768;18.262;2024-03-29T03:29:17;4.15;;;2.42;;
59468;SDS011;45277;52.768;18.262;2024-03-29T03:30:52;3.90;;;2.80;;
59468;SDS011;45277;52.768;18.262;2024-03-29T03:32:24;5.40;;;2.90;;
59468;SDS011;45277;52.768;18.262;2024-03-29T03:33:55;3.70;;;2.72;;
59468;SDS011;45277;52.768;18.262;2024-03-29T03:35:27;4.13;;;2.97;;
59468;SDS011;45277;52.768;18.262;2024-03-29T03:36:58;5.50;;;2.13;;
59468;SDS011;45277;52.768;18.262;2024-03-29T03:38:30;5.05;;;2.67;;
59468;SDS011;45277;52.768;18.262;2024-03-29T03:40:03;2.95;;;2.35;;
59468;SDS011;45277;52.768;18.262;2024-03-29T03:41:36;5.57;;;2.85;;
59468;SDS011;45277;52.768;18.262;2024-03-29T03:43:08;3.67;;;2.70;;
59468;SDS011;45277;52.768;18.262;2024-03-29T03:44:40;3.97;;;2.60;;
59468;SDS011;45277;52.768;18.262;2024-03-29T03:46:11;7.88;;;3.17;;
59468;SDS011;45277;52.768;18.262;2024-03-29T03:47:42;5.70;;;2.83;;
59468;SDS011;45277;52.768;18.262;2024-03-29T03:49:14;4.32;;;2.80;;
59468;SDS011;45277;52.768;18.262;2024-03-29T03:50:45;5.35;;;2.40;;
59468;SDS011;45277;52.768;18.262;2024-03-29T03:52:17;4.35;;;2.30;;
59468;SDS011;45277;52.768;18.262;2024-03-29T03:53:48;10.43;;;2.90;;
59468;SDS011;45277;52.768;18.262;2024-03-29T03:55:20;2.65;;;2.35;;
59468;SDS011;45277;52.768;18.262;2024-03-29T03:56:51;2.40;;;2.20;;
59468;SDS011;45277;52.768;18.262;2024-03-29T03:58:23;5.30;;;2.70;;
59468;SDS011;45277;52.768;18.262;2024-03-29T03:59:54;3.10;;;2.30;;
59468;SDS011;45277;52.768;18.262;2024-03-29T04:01:25;2.95;;;2.30;;
59468;SDS011;45277;52.768;18.262;2024-03-29T04:02:57;2.65;;;2.30;;
59468;SDS011;45277;52.768;18.262;2024-03-29T04:04:28;2.90;;;2.17;;
59468;SDS011;45277;52.768;18.262;2024-03-29T04:06:02;2.95;;;2.30;;
59468;SDS011;45277;52.768;18.262;2024-03-29T04:07:34;2.30;;;1.95;;
59468;SDS011;45277;52.768;18.262;2024-03-29T04:09:06;2.63;;;2.30;;
59468;SDS011;45277;52.768;18.262;2024-03-29T04:10:38;3.28;;;2.20;;
59468;SDS011;45277;52.768;18.262;2024-03-29T04:12:10;3.95;;;2.13;;
59468;SDS011;45277;52.768;18.262;2024-03-29T04:13:42;5.57;;;2.30;;
59468;SDS011;45277;52.768;18.262;2024-03-29T04:15:15;3.20;;;2.47;;
59468;SDS011;45277;52.768;18.262;2024-03-29T04:16:47;6.32;;;2.38;;
59468;SDS011;45277;52.768;18.262;2024-03-29T04:18:19;4.80;;;2.28;;
59468;SDS011;45277;52.768;18.262;2024-03-29T04:19:50;10.88;;;2.88;;
59468;SDS011;45277;52.768;18.262;2024-03-29T04:21:22;2.58;;;1.92;;
59468;SDS011;45277;52.768;18.262;2024-03-29T04:22:53;2.33;;;2.13;;
59468;SDS011;45277;52.768;18.262;2024-03-29T04:24:24;3.00;;;2.70;;
59468;SDS011;45277;52.768;18.262;2024-03-29T04:25:57;2.78;;;2.47;;
59468;SDS011;45277;52.768;18.262;2024-03-29T04:27:29;5.15;;;2.65;;
59468;SDS011;45277;52.768;18.262;2024-03-29T04:29:00;6.10;;;2.60;;
59468;SDS011;45277;52.768;18.262;2024-03-29T04:30:32;6.03;;;2.40;;
59468;SDS011;45277;52.768;18.262;2024-03-29T04:32:03;4.05;;;2.58;;
59468;SDS011;45277;52.768;18.262;2024-03-29T04:33:35;3.17;;;2.70;;
59468;SDS011;45277;52.768;18.262;2024-03-29T04:35:06;6.53;;;2.63;;
59468;SDS011;45277;52.768;18.262;2024-03-29T04:36:38;4.15;;;2.88;;
59468;SDS011;45277;52.768;18.262;2024-03-29T04:38:09;6.72;;;2.95;;
59468;SDS011;45277;52.768;18.262;2024-03-29T04:39:44;3.00;;;2.70;;
59468;SDS011;45277;52.768;18.262;2024-03-29T04:41:16;3.10;;;2.72;;
59468;SDS011;45277;52.768;18.262;2024-03-29T04:42:48;3.95;;;2.50;;
59468;SDS011;45277;52.768;18.262;2024-03-29T04:44:28;6.47;;;3.10;;
59468;SDS011;45277;52.768;18.262;2024-03-29T04:46:03;3.10;;;2.80;;
59468;SDS011;45277;52.768;18.262;2024-03-29T04:47:37;4.03;;;2.60;;
59468;SDS011;45277;52.768;18.262;2024-03-29T04:49:08;3.80;;;3.03;;
59468;SDS011;45277;52.768;18.262;2024-03-29T04:50:39;7.10;;;3.17;;
59468;SDS011;45277;52.768;18.262;2024-03-29T04:52:11;3.30;;;3.00;;
59468;SDS011;45277;52.768;18.262;2024-03-29T04:53:44;3.60;;;3.03;;
59468;SDS011;45277;52.768;18.262;2024-03-29T04:55:15;4.20;;;2.85;;
59468;SDS011;45277;52.768;18.262;2024-03-29T04:56:47;3.50;;;2.75;;
59468;SDS011;45277;52.768;18.262;2024-03-29T04:58:18;4.45;;;3.00;;
59468;SDS011;45277;52.768;18.262;2024-03-29T04:59:49;5.40;;;2.80;;
59468;SDS011;45277;52.768;18.262;2024-03-29T05:01:21;6.88;;;3.45;;
59468;SDS011;45277;52.768;18.262;2024-03-29T05:02:52;3.65;;;2.60;;
59468;SDS011;45277;52.768;18.262;2024-03-29T05:04:24;2.80;;;2.33;;
59468;SDS011;45277;52.768;18.262;2024-03-29T05:05:56;3.90;;;2.88;;
59468;SDS011;45277;52.768;18.262;2024-03-29T05:07:27;3.08;;;2.60;;
59468;SDS011;45277;52.768;18.262;2024-03-29T05:08:59;2.95;;;2.50;;
59468;SDS011;45277;52.768;18.262;2024-03-29T05:10:30;3.47;;;2.60;;
59468;SDS011;45277;52.768;18.262;2024-03-29T05:12:01;3.55;;;2.85;;
59468;SDS011;45277;52.768;18.262;2024-03-29T05:13:33;4.93;;;3.50;;
59468;SDS011;45277;52.768;18.262;2024-03-29T05:15:05;11.05;;;5.03;;
59468;SDS011;45277;52.768;18.262;2024-03-29T05:16:37;8.65;;;4.90;;
59468;SDS011;45277;52.768;18.262;2024-03-29T05:18:08;8.32;;;3.63;;
59468;SDS011;45277;52.768;18.262;2024-03-29T05:19:40;7.10;;;4.28;;
59468;SDS011;45277;52.768;18.262;2024-03-29T05:21:11;13.48;;;7.13;;
59468;SDS011;45277;52.768;18.262;2024-03-29T05:22:43;9.52;;;6.72;;
59468;SDS011;45277;52.768;18.262;2024-03-29T05:24:14;16.73;;;9.57;;
59468;SDS011;45277;52.768;18.262;2024-03-29T05:25:46;8.52;;;4.68;;
59468;SDS011;45277;52.768;18.262;2024-03-29T05:27:19;9.88;;;6.70;;
59468;SDS011;45277;52.768;18.262;2024-03-29T05:28:50;10.30;;;5.03;;
59468;SDS011;45277;52.768;18.262;2024-03-29T05:30:24;6.40;;;4.07;;
59468;SDS011;45277;52.768;18.262;2024-03-29T05:31:55;2.45;;;1.88;;
59468;SDS011;45277;52.768;18.262;2024-03-29T05:33:26;4.80;;;3.72;;
59468;SDS011;45277;52.768;18.262;2024-03-29T05:34:58;3.83;;;2.85;;
59468;SDS011;45277;52.768;18.262;2024-03-29T05:36:30;5.60;;;2.40;;
59468;SDS011;45277;52.768;18.262;2024-03-29T05:38:01;2.40;;;1.98;;
59468;SDS011;45277;52.768;18.262;2024-03-29T05:39:33;5.03;;;2.85;;
59468;SDS011;45277;52.768;18.262;2024-03-29T05:41:04;2.60;;;2.05;;
59468;SDS011;45277;52.768;18.262;2024-03-29T05:42:36;10.23;;;4.47;;
59468;SDS011;45277;52.768;18.262;2024-03-29T05:44:08;6.57;;;3.45;;
59468;SDS011;45277;52.768;18.262;2024-03-29T05:45:39;5.20;;;3.10;;
59468;SDS011;45277;52.768;18.262;2024-03-29T05:47:11;6.38;;;2.90;;
59468;SDS011;45277;52.768;18.262;2024-03-29T05:48:42;7.97;;;3.78;;
59468;SDS011;45277;52.768;18.262;2024-03-29T05:50:14;8.43;;;3.65;;
59468;SDS011;45277;52.768;18.262;2024-03-29T05:51:45;9.07;;;3.42;;
59468;SDS011;45277;52.768;18.262;2024-03-29T05:53:17;3.13;;;2.28;;
59468;SDS011;45277;52.768;18.262;2024-03-29T05:54:48;3.80;;;2.90;;
59468;SDS011;45277;52.768;18.262;2024-03-29T05:56:20;1.92;;;1.83;;
59468;SDS011;45277;52.768;18.262;2024-03-29T05:57:53;8.88;;;3.20;;
59468;SDS011;45277;52.768;18.262;2024-03-29T05:59:24;4.30;;;3.08;;
59468;SDS011;45277;52.768;18.262;2024-03-29T06:00:55;4.63;;;3.13;;
59468;SDS011;45277;52.768;18.262;2024-03-29T06:02:27;9.98;;;4.00;;
59468;SDS011;45277;52.768;18.262;2024-03-29T06:03:58;8.48;;;4.60;;
59468;SDS011;45277;52.768;18.262;2024-03-29T06:05:35;3.45;;;3.08;;
59468;SDS011;45277;52.768;18.262;2024-03-29T06:07:06;4.55;;;2.75;;
59468;SDS011;45277;52.768;18.262;2024-03-29T06:08:38;7.38;;;3.55;;
59468;SDS011;45277;52.768;18.262;2024-03-29T06:10:10;2.05;;;1.88;;
59468;SDS011;45277;52.768;18.262;2024-03-29T06:11:43;5.05;;;3.47;;
59468;SDS011;45277;52.768;18.262;2024-03-29T06:13:14;1.88;;;1.75;;
59468;SDS011;45277;52.768;18.262;2024-03-29T06:15:00;5.72;;;2.88;;
59468;SDS011;45277;52.768;18.262;2024-03-29T06:16:50;4.85;;;2.35;;
59468;SDS011;45277;52.768;18.262;2024-03-29T06:18:39;5.30;;;2.80;;
59468;SDS011;45277;52.768;18.262;2024-03-29T06:20:11;3.47;;;2.28;;
59468;SDS011;45277;52.768;18.262;2024-03-29T06:21:43;3.38;;;1.90;;
59468;SDS011;45277;52.768;18.262;2024-03-29T06:23:15;4.55;;;2.13;;
59468;SDS011;45277;52.768;18.262;2024-03-29T06:24:46;10.30;;;2.90;;
59468;SDS011;45277;52.768;18.262;2024-03-29T06:26:19;5.20;;;2.55;;
59468;SDS011;45277;52.768;18.262;2024-03-29T06:27:51;5.93;;;2.75;;
59468;SDS011;45277;52.768;18.262;2024-03-29T06:29:22;3.65;;;2.40;;
59468;SDS011;45277;52.768;18.262;2024-03-29T06:30:54;4.00;;;2.13;;
59468;SDS011;45277;52.768;18.262;2024-03-29T06:32:26;4.13;;;2.50;;
59468;SDS011;45277;52.768;18.262;2024-03-29T06:33:57;4.05;;;2.22;;
59468;SDS011;45277;52.768;18.262;2024-03-29T06:35:29;3.72;;;1.92;;
59468;SDS011;45277;52.768;18.262;2024-03-29T06:37:01;2.15;;;1.83;;
59468;SDS011;45277;52.768;18.262;2024-03-29T06:38:33;6.50;;;2.35;;
59468;SDS011;45277;52.768;18.262;2024-03-29T06:40:05;1.70;;;1.60;;
59468;SDS011;45277;52.768;18.262;2024-03-29T06:41:38;4.15;;;2.10;;
59468;SDS011;45277;52.768;18.262;2024-03-29T06:43:09;3.22;;;2.38;;
59468;SDS011;45277;52.768;18.262;2024-03-29T06:44:42;2.72;;;1.98;;
59468;SDS011;45277;52.768;18.262;2024-03-29T06:46:14;2.75;;;1.60;;
59468;SDS011;45277;52.768;18.262;2024-03-29T06:47:45;6.32;;;2.65;;
59468;SDS011;45277;52.768;18.262;2024-03-29T06:49:17;2.33;;;2.08;;
59468;SDS011;45277;52.768;18.262;2024-03-29T06:50:49;3.85;;;2.47;;
59468;SDS011;45277;52.768;18.262;2024-03-29T06:52:20;3.70;;;2.25;;
59468;SDS011;45277;52.768;18.262;2024-03-29T06:53:52;4.60;;;2.10;;
59468;SDS011;45277;52.768;18.262;2024-03-29T06:55:23;8.32;;;2.30;;
59468;SDS011;45277;52.768;18.262;2024-03-29T06:56:55;3.33;;;2.03;;
59468;SDS011;45277;52.768;18.262;2024-03-29T06:58:27;2.78;;;2.15;;
59468;SDS011;45277;52.768;18.262;2024-03-29T06:59:59;4.90;;;2.40;;
59468;SDS011;45277;52.768;18.262;2024-03-29T07:01:30;3.88;;;1.85;;
59468;SDS011;45277;52.768;18.262;2024-03-29T07:03:02;2.30;;;2.08;;
59468;SDS011;45277;52.768;18.262;2024-03-29T07:04:33;4.03;;;2.25;;
59468;SDS011;45277;52.768;18.262;2024-03-29T07:06:04;4.78;;;2.20;;
59468;SDS011;45277;52.768;18.262;2024-03-29T07:07:37;3.33;;;2.20;;
59468;SDS011;45277;52.768;18.262;2024-03-29T07:09:09;6.80;;;2.30;;
59468;SDS011;45277;52.768;18.262;2024-03-29T07:10:40;3.17;;;2.10;;
59468;SDS011;45277;52.768;18.262;2024-03-29T07:12:12;1.88;;;1.70;;
59468;SDS011;45277;52.768;18.262;2024-03-29T07:13:43;1.83;;;1.50;;
59468;SDS011;45277;52.768;18.262;2024-03-29T07:15:14;2.67;;;1.73;;
59468;SDS011;45277;52.768;18.262;2024-03-29T07:16:46;1.75;;;1.65;;
59468;SDS011;45277;52.768;18.262;2024-03-29T07:18:17;1.80;;;1.70;;
59468;SDS011;45277;52.768;18.262;2024-03-29T07:19:49;3.35;;;2.00;;
59468;SDS011;45277;52.768;18.262;2024-03-29T07:21:20;1.98;;;1.85;;
59468;SDS011;45277;52.768;18.262;2024-03-29T07:22:52;2.63;;;1.92;;
59468;SDS011;45277;52.768;18.262;2024-03-29T07:24:23;3.25;;;1.83;;
59468;SDS011;45277;52.768;18.262;2024-03-29T07:27:31;3.58;;;1.70;;
59468;SDS011;45277;52.768;18.262;2024-03-29T07:29:05;2.17;;;1.42;;
59468;SDS011;45277;52.768;18.262;2024-03-29T07:30:37;1.42;;;1.33;;
59468;SDS011;45277;52.768;18.262;2024-03-29T07:32:09;5.55;;;1.98;;
59468;SDS011;45277;52.768;18.262;2024-03-29T07:33:41;5.50;;;1.92;;
59468;SDS011;45277;52.768;18.262;2024-03-29T07:35:12;6.45;;;1.83;;
59468;SDS011;45277;52.768;18.262;2024-03-29T07:36:45;6.20;;;2.00;;
59468;SDS011;45277;52.768;18.262;2024-03-29T07:38:17;10.18;;;1.70;;
59468;SDS011;45277;52.768;18.262;2024-03-29T07:39:51;1.98;;;1.58;;
59468;SDS011;45277;52.768;18.262;2024-03-29T07:41:22;1.63;;;1.52;;
59468;SDS011;45277;52.768;18.262;2024-03-29T07:42:54;1.40;;;1.30;;
59468;SDS011;45277;52.768;18.262;2024-03-29T07:44:25;4.97;;;2.35;;
59468;SDS011;45277;52.768;18.262;2024-03-29T07:45:57;3.00;;;1.95;;
59468;SDS011;45277;52.768;18.262;2024-03-29T07:47:28;1.65;;;1.55;;
59468;SDS011;45277;52.768;18.262;2024-03-29T07:49:00;1.65;;;1.42;;
59468;SDS011;45277;52.768;18.262;2024-03-29T07:50:32;1.85;;;1.50;;
59468;SDS011;45277;52.768;18.262;2024-03-29T07:52:03;5.90;;;2.03;;
59468;SDS011;45277;52.768;18.262;2024-03-29T07:53:36;1.98;;;1.60;;
59468;SDS011;45277;52.768;18.262;2024-03-29T07:55:07;2.97;;;1.98;;
59468;SDS011;45277;52.768;18.262;2024-03-29T07:56:41;1.77;;;1.60;;
59468;SDS011;45277;52.768;18.262;2024-03-29T07:58:12;4.45;;;2.00;;
59468;SDS011;45277;52.768;18.262;2024-03-29T07:59:44;2.30;;;2.10;;
59468;SDS011;45277;52.768;18.262;2024-03-29T08:01:18;2.08;;;1.60;;
59468;SDS011;45277;52.768;18.262;2024-03-29T08:02:51;4.03;;;2.80;;
59468;SDS011;45277;52.768;18.262;2024-03-29T08:04:24;1.70;;;1.60;;
59468;SDS011;45277;52.768;18.262;2024-03-29T08:05:56;6.95;;;2.15;;
59468;SDS011;45277;52.768;18.262;2024-03-29T08:07:31;4.97;;;1.90;;
59468;SDS011;45277;52.768;18.262;2024-03-29T08:09:03;2.72;;;1.80;;
59468;SDS011;45277;52.768;18.262;2024-03-29T08:10:34;2.00;;;1.70;;
59468;SDS011;45277;52.768;18.262;2024-03-29T08:12:06;1.98;;;1.83;;
59468;SDS011;45277;52.768;18.262;2024-03-29T08:13:37;1.95;;;1.75;;
59468;SDS011;45277;52.768;18.262;2024-03-29T08:15:10;3.95;;;2.05;;
59468;SDS011;45277;52.768;18.262;2024-03-29T08:16:41;4.05;;;2.38;;
59468;SDS011;45277;52.768;18.262;2024-03-29T08:18:13;4.80;;;2.78;;
59468;SDS011;45277;52.768;18.262;2024-03-29T08:19:45;1.70;;;1.60;;
59468;SDS011;45277;52.768;18.262;2024-03-29T08:21:16;4.72;;;2.10;;
59468;SDS011;45277;52.768;18.262;2024-03-29T08:22:48;2.85;;;1.77;;
59468;SDS011;45277;52.768;18.262;2024-03-29T08:24:19;3.95;;;1.45;;
59468;SDS011;45277;52.768;18.262;2024-03-29T08:25:51;2.47;;;2.03;;
59468;SDS011;45277;52.768;18.262;2024-03-29T08:27:22;2.03;;;1.83;;
59468;SDS011;45277;52.768;18.262;2024-03-29T08:28:53;2.67;;;1.85;;
59468;SDS011;45277;52.768;18.262;2024-03-29T08:30:25;1.60;;;1.50;;
59468;SDS011;45277;52.768;18.262;2024-03-29T08:31:59;1.83;;;1.73;;
59468;SDS011;45277;52.768;18.262;2024-03-29T08:33:31;3.85;;;2.67;;
59468;SDS011;45277;52.768;18.262;2024-03-29T08:35:03;2.17;;;1.75;;
59468;SDS011;45277;52.768;18.262;2024-03-29T08:36:34;2.97;;;2.20;;
59468;SDS011;45277;52.768;18.262;2024-03-29T08:38:06;3.17;;;1.67;;
59468;SDS011;45277;52.768;18.262;2024-03-29T08:39:37;2.08;;;1.90;;
59468;SDS011;45277;52.768;18.262;2024-03-29T08:41:09;6.80;;;1.67;;
59468;SDS011;45277;52.768;18.262;2024-03-29T08:42:40;12.55;;;2.00;;
59468;SDS011;45277;52.768;18.262;2024-03-29T08:44:12;2.70;;;2.08;;
59468;SDS011;45277;52.768;18.262;2024-03-29T08:45:44;4.38;;;2.00;;
59468;SDS011;45277;52.768;18.262;2024-03-29T08:47:15;9.30;;;2.80;;
59468;SDS011;45277;52.768;18.262;2024-03-29T08:48:47;1.70;;;1.55;;
59468;SDS011;45277;52.768;18.262;2024-03-29T08:50:18;4.65;;;2.55;;
59468;SDS011;45277;52.768;18.262;2024-03-29T08:51:50;5.75;;;2.95;;
59468;SDS011;45277;52.768;18.262;2024-03-29T08:53:22;6.90;;;2.88;;
59468;SDS011;45277;52.768;18.262;2024-03-29T08:54:53;5.35;;;2.85;;
59468;SDS011;45277;52.768;18.262;2024-03-29T08:56:24;4.82;;;2.30;;
59468;SDS011;45277;52.768;18.262;2024-03-29T08:57:59;2.22;;;1.90;;
59468;SDS011;45277;52.768;18.262;2024-03-29T08:59:31;2.55;;;1.50;;
59468;SDS011;45277;52.768;18.262;2024-03-29T09:01:03;2.05;;;1.80;;
59468;SDS011;45277;52.768;18.262;2024-03-29T09:02:35;2.25;;;1.60;;
59468;SDS011;45277;52.768;18.262;2024-03-29T09:04:07;4.60;;;2.50;;
59468;SDS011;45277;52.768;18.262;2024-03-29T09:05:41;1.20;;;1.17;;
59468;SDS011;45277;52.768;18.262;2024-03-29T09:07:13;4.68;;;2.70;;
59468;SDS011;45277;52.768;18.262;2024-03-29T09:08:44;5.78;;;1.73;;
59468;SDS011;45277;52.768;18.262;2024-03-29T09:10:16;1.50;;;1.40;;